createdAt,value
2019-03-21T00:04:35.991Z,8.10
2019-03-21T00:10:21.963Z,7.23
2019-03-21T00:12:50.234Z,7.30
2019-03-21T00:15:21.012Z,7.53
2019-03-21T00:17:50.801Z,9.10
2019-03-21T00:20:19.104Z,8.20
2019-03-21T00:22:47.494Z,7.27
2019-03-21T00:25:18.491Z,7.30
2019-03-21T00:31:02.401Z,7.33
2019-03-21T00:36:59.123Z,8.23
2019-03-21T00:39:32.613Z,7.43
2019-03-21T00:41:57.369Z,6.40
2019-03-21T00:44:25.731Z,7.53
2019-03-21T00:46:54.161Z,7.83
2019-03-21T00:52:38.051Z,7.33
2019-03-21T00:55:07.906Z,7.57
2019-03-21T00:57:36.282Z,7.17
2019-03-21T01:03:20.081Z,6.30
2019-03-21T01:09:06.468Z,7.03
2019-03-21T01:14:51.729Z,6.47
2019-03-21T01:17:20.001Z,6.83
2019-03-21T01:19:49.748Z,6.53
2019-03-21T01:22:18.105Z,7.20
2019-03-21T01:24:46.449Z,8.17
2019-03-21T01:27:15.054Z,7.53
2019-03-21T01:29:43.329Z,6.67
2019-03-21T01:35:27.762Z,7.13
2019-03-21T01:41:13.728Z,7.40
2019-03-21T01:46:58.016Z,7.00
2019-03-21T01:49:26.517Z,8.43
2019-03-21T01:51:54.926Z,7.67
2019-03-21T01:54:23.189Z,6.63
2019-03-21T01:56:51.570Z,7.03
2019-03-21T01:59:19.821Z,7.50
2019-03-21T02:07:41.537Z,7.60
2019-03-21T02:10:11.644Z,6.83
2019-03-21T02:12:39.921Z,6.73
2019-03-21T02:15:10.039Z,8.40
2019-03-21T02:17:38.409Z,8.97
2019-03-21T02:20:09.289Z,5.93
2019-03-21T02:22:37.581Z,6.60
2019-03-21T02:25:07.517Z,9.20
2019-03-21T02:27:35.981Z,6.93
2019-03-21T02:30:05.727Z,8.23
2019-03-21T02:32:34.250Z,7.57
2019-03-21T02:35:02.818Z,8.47
2019-03-21T02:37:32.147Z,7.70
2019-03-21T02:40:00.933Z,6.77
2019-03-21T02:42:29.851Z,9.40
2019-03-21T02:45:08.341Z,7.20
2019-03-21T02:47:28.237Z,7.63
2019-03-21T02:49:56.530Z,7.57
2019-03-21T02:52:24.903Z,7.77
2019-03-21T02:54:53.161Z,8.67
2019-03-21T02:57:21.577Z,9.03
2019-03-21T02:59:50.005Z,7.60
2019-03-21T03:02:18.267Z,8.23
2019-03-21T03:04:46.902Z,8.60
2019-03-21T03:07:15.223Z,7.67
2019-03-21T03:09:43.582Z,8.27
2019-03-21T03:12:11.836Z,9.33
2019-03-21T03:14:40.237Z,8.70
2019-03-21T03:17:08.718Z,7.47
2019-03-21T03:19:36.990Z,9.17
2019-03-21T03:22:06.347Z,7.10
2019-03-21T03:24:34.570Z,8.87
2019-03-21T03:27:02.982Z,8.63
2019-03-21T03:29:31.309Z,8.73
2019-03-21T03:31:59.601Z,8.63
2019-03-21T03:34:27.982Z,10.30
2019-03-21T03:36:56.253Z,9.30
2019-03-21T03:39:24.569Z,7.47
2019-03-21T03:41:52.963Z,7.63
2019-03-21T03:44:21.261Z,8.10
2019-03-21T03:46:49.717Z,10.27
2019-03-21T03:49:18.121Z,11.00
2019-03-21T03:51:46.420Z,11.27
2019-03-21T03:54:14.700Z,9.77
2019-03-21T03:56:43.198Z,10.27
2019-03-21T03:59:11.666Z,10.07
2019-03-21T04:01:40.300Z,10.30
2019-03-21T04:04:08.553Z,10.63
2019-03-21T04:06:36.903Z,11.00
2019-03-21T04:09:06.292Z,13.07
2019-03-21T04:11:34.610Z,9.23
2019-03-21T04:14:03.570Z,12.83
2019-03-21T04:16:32.500Z,11.07
2019-03-21T04:19:00.755Z,10.77
2019-03-21T04:21:29.169Z,10.83
2019-03-21T04:23:59.809Z,9.80
2019-03-21T04:26:29.080Z,9.90
2019-03-21T04:28:57.446Z,12.30
2019-03-21T04:31:25.751Z,11.53
2019-03-21T04:33:55.512Z,10.80
2019-03-21T04:36:23.872Z,11.97
2019-03-21T04:38:52.296Z,9.40
2019-03-21T04:41:20.674Z,10.80
2019-03-21T04:43:49.141Z,10.83
2019-03-21T04:46:17.476Z,13.07
2019-03-21T04:48:45.850Z,11.20
2019-03-21T04:51:14.284Z,10.80
2019-03-21T04:53:42.748Z,10.43
2019-03-21T04:56:11.041Z,11.17
2019-03-21T04:58:39.509Z,9.63
2019-03-21T05:01:07.815Z,11.30
2019-03-21T05:03:36.164Z,11.30
2019-03-21T05:06:04.630Z,11.63
2019-03-21T05:08:33.057Z,10.70
2019-03-21T05:11:01.401Z,13.13
2019-03-21T05:13:29.721Z,11.50
2019-03-21T05:15:57.989Z,12.33
2019-03-21T05:18:27.809Z,12.03
2019-03-21T05:20:58.076Z,11.80
2019-03-21T05:23:26.482Z,13.07
2019-03-21T05:25:54.853Z,10.00
2019-03-21T05:28:23.173Z,10.70
2019-03-21T05:30:54.101Z,12.03
2019-03-21T05:33:22.576Z,13.20
2019-03-21T05:35:50.921Z,10.73
2019-03-21T05:38:20.283Z,10.17
2019-03-21T05:40:48.749Z,13.60
2019-03-21T05:43:18.468Z,12.70
2019-03-21T05:45:46.904Z,11.77
2019-03-21T05:48:15.345Z,12.10
2019-03-21T05:50:43.787Z,12.40
2019-03-21T05:53:13.201Z,12.27
2019-03-21T05:55:41.562Z,13.33
2019-03-21T05:58:09.861Z,11.63
2019-03-21T06:00:40.480Z,12.67
2019-03-21T06:03:10.650Z,11.13
2019-03-21T06:05:40.209Z,11.63
2019-03-21T06:08:10.961Z,12.57
2019-03-21T06:10:39.309Z,11.97
2019-03-21T06:13:07.617Z,12.03
2019-03-21T06:15:37.402Z,10.70
2019-03-21T06:18:05.786Z,8.37
2019-03-21T06:20:35.607Z,12.03
2019-03-21T06:23:05.301Z,13.20
2019-03-21T06:25:35.280Z,13.37
2019-03-21T06:28:06.616Z,13.07
2019-03-21T06:30:35.389Z,11.60
2019-03-21T06:33:03.871Z,14.20
2019-03-21T06:35:32.171Z,12.07
2019-03-21T06:38:00.519Z,12.70
2019-03-21T06:40:28.900Z,12.80
2019-03-21T06:42:57.259Z,13.83
2019-03-21T06:45:25.633Z,21.43
2019-03-21T06:47:55.769Z,18.10
2019-03-21T06:50:24.151Z,11.87
2019-03-21T06:52:53.454Z,15.70
2019-03-21T06:55:21.708Z,12.50
2019-03-21T06:57:50.082Z,14.80
2019-03-21T07:00:18.370Z,13.53
2019-03-21T07:02:47.098Z,14.27
2019-03-21T07:05:15.584Z,17.30
2019-03-21T07:07:43.937Z,14.20
2019-03-21T07:10:12.411Z,13.97
2019-03-21T07:12:40.662Z,18.20
2019-03-21T07:15:10.100Z,15.50
2019-03-21T07:17:38.391Z,16.23
2019-03-21T07:20:08.097Z,18.03
2019-03-21T07:22:38.417Z,12.63
2019-03-21T07:25:07.480Z,13.83
2019-03-21T07:27:35.792Z,14.00
2019-03-21T07:30:05.661Z,14.43
2019-03-21T07:32:33.997Z,13.27
2019-03-21T07:35:02.244Z,11.80
2019-03-21T07:37:32.432Z,13.53
2019-03-21T07:40:01.004Z,13.57
2019-03-21T07:42:29.290Z,14.40
2019-03-21T07:44:57.490Z,12.93
2019-03-21T07:47:25.783Z,14.57
2019-03-21T07:49:54.084Z,13.10
2019-03-21T07:52:22.403Z,12.73
2019-03-21T07:54:50.853Z,16.30
2019-03-21T07:57:19.118Z,13.93
2019-03-21T07:59:47.490Z,15.43
2019-03-21T08:02:19.899Z,13.30
2019-03-21T08:04:50.209Z,15.17
2019-03-21T08:07:18.542Z,15.33
2019-03-21T08:09:46.809Z,15.83
2019-03-21T08:12:17.282Z,15.53
2019-03-21T08:14:46.990Z,15.40
2019-03-21T08:17:15.155Z,12.27
2019-03-21T08:19:43.421Z,14.77
2019-03-21T08:22:11.761Z,13.17
2019-03-21T08:24:39.887Z,14.40
2019-03-21T08:27:08.117Z,12.87
2019-03-21T08:29:36.483Z,11.00
2019-03-21T08:32:04.729Z,13.43
2019-03-21T08:34:33.089Z,13.50
2019-03-21T08:37:01.268Z,10.00
2019-03-21T08:39:29.469Z,17.40
2019-03-21T08:41:57.883Z,17.00
2019-03-21T08:44:27.645Z,12.93
2019-03-21T08:46:55.857Z,15.80
2019-03-21T08:49:24.096Z,14.73
2019-03-21T08:51:52.463Z,16.17
2019-03-21T08:54:20.671Z,18.00
2019-03-21T08:56:48.996Z,18.13
2019-03-21T08:59:18.789Z,15.70
2019-03-21T09:01:47.017Z,19.67
2019-03-21T09:04:16.654Z,17.47
2019-03-21T09:06:44.928Z,16.77
2019-03-21T09:09:13.059Z,18.37
2019-03-21T09:11:41.237Z,17.67
2019-03-21T09:14:09.617Z,16.73
2019-03-21T09:16:37.968Z,14.57
2019-03-21T09:19:06.265Z,13.23
2019-03-21T09:21:34.716Z,15.40
2019-03-21T09:24:03.132Z,18.50
2019-03-21T09:26:32.798Z,17.23
2019-03-21T09:29:01.171Z,20.10
2019-03-21T09:31:29.406Z,18.20
2019-03-21T09:34:01.025Z,20.70
2019-03-21T09:36:30.299Z,14.10
2019-03-21T09:38:58.539Z,14.33
2019-03-21T09:41:26.821Z,17.10
2019-03-21T09:43:55.172Z,20.03
2019-03-21T09:46:23.510Z,18.87
2019-03-21T09:48:51.729Z,17.23
2019-03-21T09:51:30.464Z,16.57
2019-03-21T09:53:50.390Z,15.37
2019-03-21T09:56:18.726Z,15.33
2019-03-21T09:58:47.059Z,14.80
2019-03-21T10:01:15.423Z,13.93
2019-03-21T10:03:43.657Z,15.73
2019-03-21T10:06:11.874Z,15.73
2019-03-21T10:08:44.081Z,12.13
2019-03-21T10:11:21.730Z,13.00
2019-03-21T10:13:49.944Z,13.57
2019-03-21T10:16:18.204Z,15.47
2019-03-21T10:18:46.329Z,13.10
2019-03-21T10:21:14.629Z,13.13
2019-03-21T10:23:42.891Z,14.40
2019-03-21T10:26:11.174Z,14.47
2019-03-21T10:28:39.444Z,13.63
2019-03-21T10:31:07.662Z,15.63
2019-03-21T10:33:35.882Z,15.10
2019-03-21T10:36:04.116Z,14.07
2019-03-21T10:38:32.519Z,18.00
2019-03-21T10:41:01.129Z,12.03
2019-03-21T10:43:29.369Z,14.20
2019-03-21T10:45:57.561Z,11.70
2019-03-21T10:48:25.874Z,14.47
2019-03-21T10:50:54.362Z,13.33
2019-03-21T10:53:22.712Z,12.23
2019-03-21T10:55:50.850Z,16.57
2019-03-21T10:58:18.971Z,15.30
2019-03-21T11:00:47.371Z,17.00
2019-03-21T11:03:15.683Z,16.20
2019-03-21T11:05:43.954Z,16.43
2019-03-21T11:08:12.253Z,13.33
2019-03-21T11:10:40.593Z,16.40
2019-03-21T11:13:09.500Z,14.33
2019-03-21T11:15:37.870Z,15.97
2019-03-21T11:18:06.114Z,16.60
2019-03-21T11:20:35.661Z,15.23
2019-03-21T11:23:04.828Z,12.73
2019-03-21T11:25:33.229Z,11.60
2019-03-21T11:28:01.477Z,13.47
2019-03-21T11:30:36.639Z,21.07
2019-03-21T11:33:05.080Z,14.37
2019-03-21T11:35:33.413Z,12.77
2019-03-21T11:38:01.780Z,16.63
2019-03-21T11:40:30.195Z,19.53
2019-03-21T11:42:58.485Z,10.60
2019-03-21T11:45:27.416Z,11.57
2019-03-21T11:47:55.764Z,13.60
2019-03-21T11:50:24.082Z,11.27
2019-03-21T11:52:53.383Z,10.80
2019-03-21T11:55:21.837Z,10.57
2019-03-21T11:57:50.236Z,9.60
2019-03-21T12:00:18.681Z,11.60
2019-03-21T12:02:46.928Z,9.93
2019-03-21T12:05:15.251Z,9.50
2019-03-21T12:07:45.070Z,8.50
2019-03-21T12:10:13.861Z,8.50
2019-03-21T12:12:42.335Z,8.10
2019-03-21T12:15:10.911Z,14.77
2019-03-21T12:17:41.896Z,11.07
2019-03-21T12:20:12.441Z,9.00
2019-03-21T12:22:40.731Z,11.27
2019-03-21T12:25:09.357Z,9.67
2019-03-21T12:27:37.611Z,7.50
2019-03-21T12:30:07.460Z,11.97
2019-03-21T12:32:35.787Z,13.00
2019-03-21T12:35:05.837Z,12.23
2019-03-21T12:37:34.169Z,9.70
2019-03-21T12:40:02.719Z,9.73
2019-03-21T12:42:31.189Z,7.33
2019-03-21T12:44:59.670Z,7.73
2019-03-21T12:47:31.472Z,10.37
2019-03-21T12:49:57.956Z,8.83
2019-03-21T12:52:26.278Z,8.10
2019-03-21T12:54:54.621Z,8.07
2019-03-21T12:57:22.990Z,12.23
2019-03-21T12:59:51.227Z,9.57
2019-03-21T13:02:19.376Z,12.90
2019-03-21T13:04:47.719Z,9.20
2019-03-21T13:07:16.778Z,11.87
2019-03-21T13:09:45.195Z,13.03
2019-03-21T13:12:13.449Z,11.00
2019-03-21T13:14:41.769Z,9.57
2019-03-21T13:17:14.016Z,8.83
2019-03-21T13:19:42.579Z,11.33
2019-03-21T13:22:10.955Z,12.67
2019-03-21T13:24:39.269Z,10.43
2019-03-21T13:27:07.641Z,9.30
2019-03-21T13:29:35.923Z,8.07
2019-03-21T13:32:04.224Z,7.80
2019-03-21T13:34:35.569Z,8.93
2019-03-21T13:37:05.154Z,8.37
2019-03-21T13:39:33.456Z,9.20
2019-03-21T13:42:01.686Z,9.93
2019-03-21T13:44:29.987Z,8.97
2019-03-21T13:46:58.132Z,9.93
2019-03-21T13:49:26.402Z,7.83
2019-03-21T13:51:54.658Z,7.90
2019-03-21T13:54:23.005Z,8.33
2019-03-21T13:56:51.502Z,7.07
2019-03-21T13:59:19.889Z,5.60
2019-03-21T14:01:48.131Z,6.93
2019-03-21T14:04:16.431Z,4.77
2019-03-21T14:06:44.769Z,5.57
2019-03-21T14:09:13.101Z,5.00
2019-03-21T14:11:41.450Z,4.17
2019-03-21T14:14:09.649Z,7.50
2019-03-21T14:16:37.947Z,5.37
2019-03-21T14:19:07.285Z,5.07
2019-03-21T14:21:35.624Z,5.17
2019-03-21T14:24:03.961Z,5.37
2019-03-21T14:26:32.315Z,4.07
2019-03-21T14:29:11.895Z,4.17
2019-03-21T14:31:30.469Z,6.30
2019-03-21T14:34:02.822Z,4.87
2019-03-21T14:36:31.485Z,5.53
2019-03-21T14:38:59.748Z,6.00
2019-03-21T14:41:28.262Z,7.10
2019-03-21T14:44:00.057Z,5.63
2019-03-21T14:46:28.642Z,6.20
2019-03-21T14:48:56.989Z,5.60
2019-03-21T14:51:25.241Z,8.90
2019-03-21T14:53:53.420Z,10.60
2019-03-21T14:56:21.692Z,9.13
2019-03-21T14:58:50.101Z,10.07
2019-03-21T15:01:18.369Z,11.37
2019-03-21T15:03:46.700Z,10.53
2019-03-21T15:06:15.109Z,6.63
2019-03-21T15:08:43.556Z,9.60
2019-03-21T15:11:17.019Z,10.30
2019-03-21T15:13:42.094Z,7.30
2019-03-21T15:16:10.265Z,8.53
2019-03-21T15:18:38.477Z,11.93
2019-03-21T15:21:07.893Z,8.93
2019-03-21T15:23:40.896Z,9.83
2019-03-21T15:26:06.044Z,10.00
2019-03-21T15:28:34.340Z,10.07
2019-03-21T15:31:02.578Z,10.30
2019-03-21T15:33:30.861Z,13.13
2019-03-21T15:35:59.255Z,10.00
2019-03-21T15:38:27.865Z,10.77
2019-03-21T15:40:56.448Z,8.83
2019-03-21T15:43:24.847Z,9.00
2019-03-21T15:45:53.173Z,10.60
2019-03-21T15:48:21.505Z,11.40
2019-03-21T15:50:49.721Z,10.90
2019-03-21T15:53:18.159Z,11.50
2019-03-21T15:55:46.469Z,10.87
2019-03-21T15:58:14.741Z,11.37
2019-03-21T16:00:43.555Z,9.43
2019-03-21T16:03:12.533Z,10.27
2019-03-21T16:05:44.005Z,11.03
2019-03-21T16:08:12.574Z,10.03
2019-03-21T16:10:40.776Z,9.40
2019-03-21T16:13:09.242Z,12.33
2019-03-21T16:15:37.678Z,11.03
2019-03-21T16:18:07.064Z,8.30
2019-03-21T16:20:35.386Z,11.57
2019-03-21T16:23:03.688Z,11.53
2019-03-21T16:25:31.983Z,11.90
2019-03-21T16:28:00.258Z,10.33
2019-03-21T16:30:28.450Z,9.33
2019-03-21T16:32:56.705Z,10.57
2019-03-21T16:35:24.922Z,11.20
2019-03-21T16:37:53.209Z,10.03
2019-03-21T16:40:21.323Z,9.93
2019-03-21T16:42:49.429Z,9.33
2019-03-21T16:45:17.691Z,12.83
2019-03-21T16:47:47.005Z,10.47
2019-03-21T16:50:15.195Z,9.10
2019-03-21T16:52:44.409Z,10.77
2019-03-21T16:55:13.731Z,9.27
2019-03-21T16:57:42.121Z,9.97
2019-03-21T17:00:11.859Z,10.97
2019-03-21T17:02:40.848Z,11.63
2019-03-21T17:05:09.087Z,8.30
2019-03-21T17:07:37.406Z,8.00
2019-03-21T17:10:06.269Z,8.63
2019-03-21T17:12:34.726Z,12.43
2019-03-21T17:15:03.156Z,13.80
2019-03-21T17:17:31.448Z,16.70
2019-03-21T17:19:59.664Z,16.80
2019-03-21T17:22:28.171Z,12.57
2019-03-21T17:24:56.588Z,13.43
2019-03-21T17:27:25.559Z,11.93
2019-03-21T17:29:54.037Z,11.93
2019-03-21T17:32:22.246Z,10.70
2019-03-21T17:34:50.493Z,11.47
2019-03-21T17:37:18.738Z,13.73
2019-03-21T17:39:47.111Z,13.53
2019-03-21T17:42:15.440Z,11.43
2019-03-21T17:44:43.762Z,9.87
2019-03-21T17:47:12.103Z,14.37
2019-03-21T17:49:48.403Z,15.17
2019-03-21T17:52:19.110Z,22.47
2019-03-21T17:54:47.341Z,18.37
2019-03-21T17:57:15.649Z,16.50
2019-03-21T17:59:43.912Z,19.13
2019-03-21T18:02:12.449Z,10.83
2019-03-21T18:04:40.878Z,16.60
2019-03-21T18:07:10.119Z,14.87
2019-03-21T18:09:38.465Z,17.13
2019-03-21T18:12:06.816Z,16.43
2019-03-21T18:14:35.012Z,14.37
2019-03-21T18:17:03.266Z,15.47
2019-03-21T18:19:31.590Z,18.07
2019-03-21T18:21:59.993Z,15.90
2019-03-21T18:24:34.486Z,18.90
2019-03-21T18:27:04.812Z,17.00
2019-03-21T18:29:33.209Z,16.27
2019-03-21T18:32:01.577Z,15.47
2019-03-21T18:34:29.797Z,25.90
2019-03-21T18:36:58.174Z,30.83
2019-03-21T18:39:26.574Z,44.60
2019-03-21T18:41:55.158Z,38.37
2019-03-21T18:44:23.864Z,29.57
2019-03-21T18:46:52.052Z,32.07
2019-03-21T18:49:20.287Z,22.40
2019-03-21T18:51:48.580Z,21.37
2019-03-21T18:54:27.203Z,27.37
2019-03-21T18:56:57.947Z,25.97
2019-03-21T18:59:26.341Z,21.63
2019-03-21T19:01:58.831Z,31.50
2019-03-21T19:04:27.981Z,27.17
2019-03-21T19:06:59.091Z,23.37
2019-03-21T19:09:28.064Z,28.83
2019-03-21T19:11:56.829Z,19.87
2019-03-21T19:14:25.128Z,17.47
2019-03-21T19:16:53.573Z,19.57
2019-03-21T19:19:22.008Z,18.70
2019-03-21T19:21:50.502Z,20.50
2019-03-21T19:24:18.963Z,21.87
2019-03-21T19:26:54.315Z,20.30
2019-03-21T19:29:34.074Z,20.33
2019-03-21T19:32:09.316Z,15.83
2019-03-21T19:34:44.190Z,19.23
2019-03-21T19:37:26.413Z,17.87
2019-03-21T19:40:02.514Z,15.20
2019-03-21T19:42:30.822Z,18.10
2019-03-21T19:44:59.121Z,19.13
2019-03-21T19:54:01.364Z,22.37
2019-03-21T19:56:29.927Z,19.43
2019-03-21T19:59:01.013Z,15.17
2019-03-21T20:01:28.131Z,19.53
2019-03-21T20:03:56.551Z,17.90
2019-03-21T20:06:29.565Z,18.63
2019-03-21T20:08:59.490Z,17.90
2019-03-21T20:11:28.010Z,19.10
2019-03-21T20:13:56.369Z,17.57
2019-03-21T20:16:24.710Z,14.87
2019-03-21T20:19:01.480Z,16.33
2019-03-21T20:21:32.045Z,13.63
2019-03-21T20:24:00.361Z,18.80
2019-03-21T20:26:28.930Z,16.30
2019-03-21T20:28:57.246Z,20.10
2019-03-21T20:31:25.433Z,17.57
2019-03-21T20:33:57.282Z,19.20
2019-03-21T20:36:26.917Z,18.17
2019-03-21T20:38:55.249Z,18.17
2019-03-21T20:44:28.326Z,17.00
2019-03-21T20:50:13.134Z,12.27
2019-03-21T20:55:58.989Z,12.77
2019-03-21T21:01:43.480Z,15.50
2019-03-21T21:07:28.227Z,19.57
2019-03-21T21:13:17.342Z,19.83
2019-03-21T21:19:05.400Z,20.13
2019-03-21T21:24:49.798Z,17.27
2019-03-21T21:30:34.194Z,18.00
2019-03-21T21:33:02.647Z,22.43
2019-03-21T21:38:43.137Z,20.77
2019-03-21T21:44:30.015Z,18.03
2019-03-21T21:50:25.576Z,19.70
2019-03-21T21:56:17.473Z,22.47
2019-03-21T22:01:55.982Z,22.87
2019-03-21T22:07:40.297Z,24.43
2019-03-21T22:10:09.272Z,19.13
2019-03-21T22:15:54.037Z,23.07
2019-03-21T22:21:28.361Z,24.43
2019-03-21T22:27:13.965Z,22.90
2019-03-21T22:29:46.064Z,22.20
2019-03-21T22:35:18.662Z,23.80
2019-03-21T22:37:46.941Z,21.27
2019-03-21T22:40:16.407Z,20.57
2019-03-21T22:42:44.746Z,22.37
2019-03-21T22:45:13.615Z,24.17
2019-03-21T22:47:42.078Z,20.40
2019-03-21T22:50:11.949Z,24.73
2019-03-21T22:52:40.169Z,24.07
2019-03-21T22:55:08.587Z,20.60
2019-03-21T22:57:38.771Z,24.20
2019-03-21T23:00:09.751Z,23.50
2019-03-21T23:02:39.755Z,23.40
2019-03-21T23:05:08.344Z,21.73
2019-03-21T23:07:39.566Z,24.87
2019-03-21T23:10:09.370Z,23.80
2019-03-21T23:12:37.741Z,20.53
2019-03-21T23:15:07.201Z,22.53
2019-03-21T23:17:35.652Z,21.60
2019-03-21T23:20:06.889Z,19.17
2019-03-21T23:22:35.368Z,22.40
2019-03-21T23:25:04.777Z,25.00
2019-03-21T23:27:33.152Z,22.53
2019-03-21T23:30:01.549Z,25.43
2019-03-21T23:32:32.294Z,20.87
2019-03-21T23:35:01.159Z,20.17
2019-03-21T23:37:29.654Z,22.30
2019-03-21T23:39:57.912Z,15.70
2019-03-21T23:42:26.284Z,24.70
2019-03-21T23:44:54.544Z,18.93
2019-03-21T23:47:22.935Z,21.87
2019-03-21T23:49:51.211Z,23.30
2019-03-21T23:52:19.641Z,23.77
2019-03-21T23:54:47.992Z,22.20
2019-03-21T23:57:16.224Z,25.00
2019-03-21T23:59:44.595Z,22.87
